Terminal Aerodrome Forecast
Issued by NWS Caribou, ME

Home | Current Version | Previous Version | Text Only | Print | Product List | Glossary On
Versions: 1 2 3 4 5 6 7 8 9 10 11 12 13 14 15 16 17 18 19 20 21 22
000
FTUS41 KCAR 312045 AAB
TAFCAR
TAF AMD
KCAR 312045Z 3121/0118 32015G25KT 1SM -SN BLSN OVC025
     FM312200 32015KT 2SM BLSN OVC030
     FM010000 32014KT 4SM BLSN BKN040
     FM010400 31012KT 6SM BLSN SCT250
     FM011100 31010KT P6SM SCT250=

USA.gov is the U.S. government's official web portal to all federal, state and local government web resources and services.